sensor_id;sensor_type;location;lat;lon;timestamp;P1;durP1;ratioP1;P2;durP2;ratioP2
58152;SDS011;43967;51.634;5.566;2023-05-31T00:03:40;5.57;;;1.98;;
58152;SDS011;43967;51.634;5.566;2023-05-31T00:09:01;5.90;;;2.10;;
58152;SDS011;43967;51.634;5.566;2023-05-31T00:14:23;6.53;;;2.43;;
58152;SDS011;43967;51.634;5.566;2023-05-31T00:19:44;5.50;;;1.70;;
58152;SDS011;43967;51.634;5.566;2023-05-31T00:25:06;5.40;;;1.90;;
58152;SDS011;43967;51.634;5.566;2023-05-31T00:30:27;5.93;;;2.00;;
58152;SDS011;43967;51.634;5.566;2023-05-31T00:35:48;6.40;;;2.30;;
58152;SDS011;43967;51.634;5.566;2023-05-31T00:41:10;5.82;;;1.80;;
58152;SDS011;43967;51.634;5.566;2023-05-31T00:46:32;5.00;;;1.70;;
58152;SDS011;43967;51.634;5.566;2023-05-31T00:51:54;6.30;;;2.30;;
58152;SDS011;43967;51.634;5.566;2023-05-31T00:57:16;5.68;;;1.88;;
58152;SDS011;43967;51.634;5.566;2023-05-31T01:02:37;5.78;;;2.00;;
58152;SDS011;43967;51.634;5.566;2023-05-31T01:07:59;5.60;;;1.87;;
58152;SDS011;43967;51.634;5.566;2023-05-31T01:13:23;5.30;;;1.85;;
58152;SDS011;43967;51.634;5.566;2023-05-31T01:18:57;6.10;;;1.70;;
58152;SDS011;43967;51.634;5.566;2023-05-31T01:25:06;5.23;;;2.00;;
58152;SDS011;43967;51.634;5.566;2023-05-31T01:30:17;6.18;;;1.80;;
58152;SDS011;43967;51.634;5.566;2023-05-31T01:35:40;5.55;;;1.80;;
58152;SDS011;43967;51.634;5.566;2023-05-31T01:41:01;5.83;;;2.23;;
58152;SDS011;43967;51.634;5.566;2023-05-31T01:46:24;5.53;;;2.20;;
58152;SDS011;43967;51.634;5.566;2023-05-31T01:51:46;5.85;;;1.90;;
58152;SDS011;43967;51.634;5.566;2023-05-31T01:57:09;5.50;;;1.90;;
58152;SDS011;43967;51.634;5.566;2023-05-31T02:02:30;5.40;;;1.80;;
58152;SDS011;43967;51.634;5.566;2023-05-31T02:07:52;5.20;;;1.88;;
58152;SDS011;43967;51.634;5.566;2023-05-31T02:13:14;5.03;;;1.45;;
58152;SDS011;43967;51.634;5.566;2023-05-31T02:18:35;5.50;;;1.87;;
58152;SDS011;43967;51.634;5.566;2023-05-31T02:23:56;5.57;;;1.83;;
58152;SDS011;43967;51.634;5.566;2023-05-31T02:29:17;5.55;;;1.95;;
58152;SDS011;43967;51.634;5.566;2023-05-31T02:34:39;5.30;;;1.70;;
58152;SDS011;43967;51.634;5.566;2023-05-31T02:40:01;5.33;;;1.70;;
58152;SDS011;43967;51.634;5.566;2023-05-31T02:45:23;5.95;;;2.05;;
58152;SDS011;43967;51.634;5.566;2023-05-31T02:50:44;5.57;;;2.00;;
58152;SDS011;43967;51.634;5.566;2023-05-31T02:56:05;6.37;;;1.60;;
58152;SDS011;43967;51.634;5.566;2023-05-31T03:01:27;5.50;;;2.33;;
58152;SDS011;43967;51.634;5.566;2023-05-31T03:06:48;5.35;;;1.60;;
58152;SDS011;43967;51.634;5.566;2023-05-31T03:12:09;5.70;;;1.93;;
58152;SDS011;43967;51.634;5.566;2023-05-31T03:17:31;5.50;;;1.75;;
58152;SDS011;43967;51.634;5.566;2023-05-31T03:22:52;5.60;;;2.10;;
58152;SDS011;43967;51.634;5.566;2023-05-31T03:28:13;5.77;;;2.50;;
58152;SDS011;43967;51.634;5.566;2023-05-31T03:33:35;6.00;;;2.20;;
58152;SDS011;43967;51.634;5.566;2023-05-31T03:38:56;5.60;;;2.10;;
58152;SDS011;43967;51.634;5.566;2023-05-31T03:44:17;5.63;;;2.25;;
58152;SDS011;43967;51.634;5.566;2023-05-31T03:49:38;5.40;;;1.80;;
58152;SDS011;43967;51.634;5.566;2023-05-31T03:55:00;5.63;;;2.20;;
58152;SDS011;43967;51.634;5.566;2023-05-31T04:00:21;5.68;;;1.80;;
58152;SDS011;43967;51.634;5.566;2023-05-31T04:05:42;5.83;;;1.80;;
58152;SDS011;43967;51.634;5.566;2023-05-31T04:11:04;5.22;;;1.50;;
58152;SDS011;43967;51.634;5.566;2023-05-31T04:16:25;5.63;;;1.92;;
58152;SDS011;43967;51.634;5.566;2023-05-31T04:21:46;5.87;;;2.20;;
58152;SDS011;43967;51.634;5.566;2023-05-31T04:27:07;5.30;;;2.00;;
58152;SDS011;43967;51.634;5.566;2023-05-31T04:32:29;6.38;;;2.00;;
58152;SDS011;43967;51.634;5.566;2023-05-31T04:37:50;5.40;;;1.95;;
58152;SDS011;43967;51.634;5.566;2023-05-31T04:43:11;5.70;;;2.13;;
58152;SDS011;43967;51.634;5.566;2023-05-31T04:48:32;5.38;;;1.90;;
58152;SDS011;43967;51.634;5.566;2023-05-31T04:53:54;5.40;;;1.88;;
58152;SDS011;43967;51.634;5.566;2023-05-31T04:59:15;6.30;;;2.13;;
58152;SDS011;43967;51.634;5.566;2023-05-31T05:04:36;6.93;;;1.92;;
58152;SDS011;43967;51.634;5.566;2023-05-31T05:09:57;5.72;;;1.90;;
58152;SDS011;43967;51.634;5.566;2023-05-31T05:15:19;5.90;;;2.10;;
58152;SDS011;43967;51.634;5.566;2023-05-31T05:20:40;6.23;;;2.33;;
58152;SDS011;43967;51.634;5.566;2023-05-31T05:26:02;5.70;;;2.13;;
58152;SDS011;43967;51.634;5.566;2023-05-31T05:31:24;7.68;;;2.55;;
58152;SDS011;43967;51.634;5.566;2023-05-31T05:36:45;14.27;;;7.00;;
58152;SDS011;43967;51.634;5.566;2023-05-31T05:42:06;14.75;;;6.47;;
58152;SDS011;43967;51.634;5.566;2023-05-31T05:47:28;14.40;;;6.65;;
58152;SDS011;43967;51.634;5.566;2023-05-31T05:52:49;18.47;;;7.13;;
58152;SDS011;43967;51.634;5.566;2023-05-31T05:58:10;13.90;;;6.50;;
58152;SDS011;43967;51.634;5.566;2023-05-31T06:03:31;14.85;;;5.63;;
58152;SDS011;43967;51.634;5.566;2023-05-31T06:08:53;8.40;;;3.77;;
58152;SDS011;43967;51.634;5.566;2023-05-31T06:14:14;10.47;;;4.07;;
58152;SDS011;43967;51.634;5.566;2023-05-31T06:19:35;8.85;;;3.78;;
58152;SDS011;43967;51.634;5.566;2023-05-31T06:24:57;18.50;;;3.72;;
58152;SDS011;43967;51.634;5.566;2023-05-31T06:30:19;8.67;;;3.30;;
58152;SDS011;43967;51.634;5.566;2023-05-31T06:35:40;8.93;;;3.65;;
58152;SDS011;43967;51.634;5.566;2023-05-31T06:41:01;10.27;;;3.53;;
58152;SDS011;43967;51.634;5.566;2023-05-31T06:46:22;18.60;;;3.70;;
58152;SDS011;43967;51.634;5.566;2023-05-31T06:51:44;9.85;;;3.05;;
58152;SDS011;43967;51.634;5.566;2023-05-31T06:57:05;8.88;;;3.17;;
58152;SDS011;43967;51.634;5.566;2023-05-31T07:02:26;8.07;;;2.70;;
58152;SDS011;43967;51.634;5.566;2023-05-31T07:07:48;7.87;;;3.10;;
58152;SDS011;43967;51.634;5.566;2023-05-31T07:13:09;10.13;;;3.67;;
58152;SDS011;43967;51.634;5.566;2023-05-31T07:18:30;10.55;;;3.05;;
58152;SDS011;43967;51.634;5.566;2023-05-31T07:23:51;9.27;;;3.20;;
58152;SDS011;43967;51.634;5.566;2023-05-31T07:29:13;10.02;;;3.47;;
58152;SDS011;43967;51.634;5.566;2023-05-31T07:34:34;12.15;;;3.05;;
58152;SDS011;43967;51.634;5.566;2023-05-31T07:39:55;8.40;;;3.60;;
58152;SDS011;43967;51.634;5.566;2023-05-31T07:45:16;9.48;;;2.90;;
58152;SDS011;43967;51.634;5.566;2023-05-31T07:50:38;8.82;;;2.97;;
58152;SDS011;43967;51.634;5.566;2023-05-31T07:55:59;8.53;;;3.00;;
58152;SDS011;43967;51.634;5.566;2023-05-31T08:01:20;6.87;;;3.10;;
58152;SDS011;43967;51.634;5.566;2023-05-31T08:06:42;8.85;;;3.33;;
58152;SDS011;43967;51.634;5.566;2023-05-31T08:12:03;7.10;;;3.00;;
58152;SDS011;43967;51.634;5.566;2023-05-31T08:17:25;8.73;;;2.63;;
58152;SDS011;43967;51.634;5.566;2023-05-31T08:22:46;8.15;;;2.55;;
58152;SDS011;43967;51.634;5.566;2023-05-31T08:28:08;8.45;;;2.92;;
58152;SDS011;43967;51.634;5.566;2023-05-31T08:33:29;10.03;;;3.00;;
58152;SDS011;43967;51.634;5.566;2023-05-31T08:38:51;8.05;;;2.90;;
58152;SDS011;43967;51.634;5.566;2023-05-31T08:44:13;7.97;;;2.63;;
58152;SDS011;43967;51.634;5.566;2023-05-31T08:49:35;8.80;;;2.83;;
58152;SDS011;43967;51.634;5.566;2023-05-31T08:54:56;8.17;;;3.03;;
58152;SDS011;43967;51.634;5.566;2023-05-31T09:00:19;8.20;;;2.90;;
58152;SDS011;43967;51.634;5.566;2023-05-31T09:05:41;7.18;;;2.60;;
58152;SDS011;43967;51.634;5.566;2023-05-31T09:11:02;8.00;;;2.33;;
58152;SDS011;43967;51.634;5.566;2023-05-31T09:16:24;9.45;;;2.83;;
58152;SDS011;43967;51.634;5.566;2023-05-31T09:21:45;7.50;;;2.53;;
58152;SDS011;43967;51.634;5.566;2023-05-31T09:27:06;7.80;;;2.83;;
58152;SDS011;43967;51.634;5.566;2023-05-31T09:32:28;7.32;;;2.60;;
58152;SDS011;43967;51.634;5.566;2023-05-31T09:37:49;7.10;;;2.67;;
58152;SDS011;43967;51.634;5.566;2023-05-31T09:43:11;8.20;;;2.70;;
58152;SDS011;43967;51.634;5.566;2023-05-31T09:48:36;6.93;;;2.90;;
58152;SDS011;43967;51.634;5.566;2023-05-31T09:53:58;8.15;;;2.88;;
58152;SDS011;43967;51.634;5.566;2023-05-31T09:59:21;7.80;;;2.88;;
58152;SDS011;43967;51.634;5.566;2023-05-31T10:04:43;10.37;;;2.90;;
58152;SDS011;43967;51.634;5.566;2023-05-31T10:10:04;7.40;;;2.70;;
58152;SDS011;43967;51.634;5.566;2023-05-31T10:15:27;7.88;;;2.97;;
58152;SDS011;43967;51.634;5.566;2023-05-31T10:20:52;7.50;;;2.83;;
58152;SDS011;43967;51.634;5.566;2023-05-31T10:26:16;7.18;;;2.72;;
58152;SDS011;43967;51.634;5.566;2023-05-31T10:31:48;7.30;;;2.40;;
58152;SDS011;43967;51.634;5.566;2023-05-31T10:37:10;8.53;;;3.03;;
58152;SDS011;43967;51.634;5.566;2023-05-31T10:48:14;8.27;;;2.53;;
58152;SDS011;43967;51.634;5.566;2023-05-31T10:53:37;8.30;;;2.50;;
58152;SDS011;43967;51.634;5.566;2023-05-31T10:58:59;9.00;;;2.93;;
58152;SDS011;43967;51.634;5.566;2023-05-31T11:04:24;6.50;;;2.90;;
58152;SDS011;43967;51.634;5.566;2023-05-31T11:09:55;7.93;;;2.83;;
58152;SDS011;43967;51.634;5.566;2023-05-31T11:15:18;8.70;;;3.13;;
58152;SDS011;43967;51.634;5.566;2023-05-31T11:20:39;8.00;;;2.63;;
58152;SDS011;43967;51.634;5.566;2023-05-31T11:26:07;6.45;;;2.58;;
58152;SDS011;43967;51.634;5.566;2023-05-31T11:37:11;12.40;;;2.87;;
58152;SDS011;43967;51.634;5.566;2023-05-31T11:42:37;6.75;;;2.72;;
58152;SDS011;43967;51.634;5.566;2023-05-31T11:53:36;7.13;;;2.70;;
58152;SDS011;43967;51.634;5.566;2023-05-31T11:58:58;7.53;;;2.55;;
58152;SDS011;43967;51.634;5.566;2023-05-31T12:04:19;7.60;;;2.90;;
58152;SDS011;43967;51.634;5.566;2023-05-31T12:09:41;7.33;;;2.67;;
58152;SDS011;43967;51.634;5.566;2023-05-31T12:15:02;6.50;;;2.35;;
58152;SDS011;43967;51.634;5.566;2023-05-31T12:20:26;8.25;;;2.90;;
58152;SDS011;43967;51.634;5.566;2023-05-31T12:25:49;7.13;;;2.33;;
58152;SDS011;43967;51.634;5.566;2023-05-31T12:31:11;6.97;;;2.70;;
58152;SDS011;43967;51.634;5.566;2023-05-31T12:36:44;7.22;;;2.90;;
58152;SDS011;43967;51.634;5.566;2023-05-31T12:42:06;8.63;;;2.53;;
58152;SDS011;43967;51.634;5.566;2023-05-31T12:47:28;9.00;;;2.50;;
58152;SDS011;43967;51.634;5.566;2023-05-31T12:52:56;9.45;;;2.65;;
58152;SDS011;43967;51.634;5.566;2023-05-31T12:58:17;7.95;;;2.45;;
58152;SDS011;43967;51.634;5.566;2023-05-31T13:03:39;8.37;;;2.80;;
58152;SDS011;43967;51.634;5.566;2023-05-31T13:09:00;7.50;;;2.58;;
58152;SDS011;43967;51.634;5.566;2023-05-31T13:14:22;10.52;;;2.70;;
58152;SDS011;43967;51.634;5.566;2023-05-31T13:19:43;8.17;;;2.50;;
58152;SDS011;43967;51.634;5.566;2023-05-31T13:25:04;8.77;;;3.03;;
58152;SDS011;43967;51.634;5.566;2023-05-31T13:30:26;8.00;;;2.70;;
58152;SDS011;43967;51.634;5.566;2023-05-31T13:35:48;9.95;;;2.80;;
58152;SDS011;43967;51.634;5.566;2023-05-31T13:41:09;9.87;;;2.73;;
58152;SDS011;43967;51.634;5.566;2023-05-31T13:46:30;7.35;;;2.50;;
58152;SDS011;43967;51.634;5.566;2023-05-31T13:51:51;8.27;;;2.90;;
58152;SDS011;43967;51.634;5.566;2023-05-31T13:57:13;11.30;;;2.33;;
58152;SDS011;43967;51.634;5.566;2023-05-31T14:02:34;7.10;;;2.50;;
58152;SDS011;43967;51.634;5.566;2023-05-31T14:07:56;7.40;;;2.70;;
58152;SDS011;43967;51.634;5.566;2023-05-31T14:13:18;11.20;;;3.00;;
58152;SDS011;43967;51.634;5.566;2023-05-31T14:18:39;9.23;;;2.90;;
58152;SDS011;43967;51.634;5.566;2023-05-31T14:24:00;7.85;;;2.45;;
58152;SDS011;43967;51.634;5.566;2023-05-31T14:29:22;6.63;;;2.50;;
58152;SDS011;43967;51.634;5.566;2023-05-31T14:34:43;13.13;;;2.60;;
58152;SDS011;43967;51.634;5.566;2023-05-31T14:40:05;9.00;;;3.55;;
58152;SDS011;43967;51.634;5.566;2023-05-31T14:45:27;8.38;;;2.92;;
58152;SDS011;43967;51.634;5.566;2023-05-31T14:50:48;9.97;;;2.53;;
58152;SDS011;43967;51.634;5.566;2023-05-31T14:56:09;8.07;;;2.85;;
58152;SDS011;43967;51.634;5.566;2023-05-31T15:01:31;7.47;;;2.58;;
58152;SDS011;43967;51.634;5.566;2023-05-31T15:06:52;13.27;;;3.03;;
58152;SDS011;43967;51.634;5.566;2023-05-31T15:12:13;9.27;;;2.83;;
58152;SDS011;43967;51.634;5.566;2023-05-31T15:17:35;9.15;;;2.85;;
58152;SDS011;43967;51.634;5.566;2023-05-31T15:22:56;7.85;;;2.42;;
58152;SDS011;43967;51.634;5.566;2023-05-31T15:28:17;8.63;;;3.03;;
58152;SDS011;43967;51.634;5.566;2023-05-31T15:33:38;8.88;;;2.92;;
58152;SDS011;43967;51.634;5.566;2023-05-31T15:39:00;8.13;;;2.70;;
58152;SDS011;43967;51.634;5.566;2023-05-31T15:44:22;8.77;;;2.90;;
58152;SDS011;43967;51.634;5.566;2023-05-31T15:49:45;7.38;;;2.42;;
58152;SDS011;43967;51.634;5.566;2023-05-31T15:55:07;7.88;;;2.70;;
58152;SDS011;43967;51.634;5.566;2023-05-31T16:00:28;9.73;;;2.97;;
58152;SDS011;43967;51.634;5.566;2023-05-31T16:05:50;7.77;;;2.60;;
58152;SDS011;43967;51.634;5.566;2023-05-31T16:11:12;12.05;;;2.88;;
58152;SDS011;43967;51.634;5.566;2023-05-31T16:16:33;7.85;;;3.00;;
58152;SDS011;43967;51.634;5.566;2023-05-31T16:21:54;11.60;;;3.10;;
58152;SDS011;43967;51.634;5.566;2023-05-31T16:27:16;13.95;;;3.67;;
58152;SDS011;43967;51.634;5.566;2023-05-31T16:32:37;17.60;;;5.35;;
58152;SDS011;43967;51.634;5.566;2023-05-31T16:37:59;17.33;;;4.63;;
58152;SDS011;43967;51.634;5.566;2023-05-31T16:43:20;12.15;;;4.07;;
58152;SDS011;43967;51.634;5.566;2023-05-31T16:48:42;14.45;;;4.75;;
58152;SDS011;43967;51.634;5.566;2023-05-31T16:54:03;16.33;;;4.50;;
58152;SDS011;43967;51.634;5.566;2023-05-31T16:59:24;14.90;;;3.90;;
58152;SDS011;43967;51.634;5.566;2023-05-31T17:04:46;11.98;;;3.58;;
58152;SDS011;43967;51.634;5.566;2023-05-31T17:10:07;12.23;;;3.40;;
58152;SDS011;43967;51.634;5.566;2023-05-31T17:15:29;9.83;;;3.03;;
58152;SDS011;43967;51.634;5.566;2023-05-31T17:20:50;10.85;;;3.63;;
58152;SDS011;43967;51.634;5.566;2023-05-31T17:26:11;9.10;;;3.08;;
58152;SDS011;43967;51.634;5.566;2023-05-31T17:31:33;15.77;;;3.93;;
58152;SDS011;43967;51.634;5.566;2023-05-31T17:36:54;9.65;;;3.40;;
58152;SDS011;43967;51.634;5.566;2023-05-31T17:42:15;10.80;;;3.40;;
58152;SDS011;43967;51.634;5.566;2023-05-31T17:47:36;12.93;;;3.80;;
58152;SDS011;43967;51.634;5.566;2023-05-31T17:52:58;11.10;;;3.37;;
58152;SDS011;43967;51.634;5.566;2023-05-31T17:58:19;8.30;;;3.13;;
58152;SDS011;43967;51.634;5.566;2023-05-31T18:03:40;10.30;;;3.22;;
58152;SDS011;43967;51.634;5.566;2023-05-31T18:09:02;12.90;;;3.53;;
58152;SDS011;43967;51.634;5.566;2023-05-31T18:14:23;8.73;;;3.20;;
58152;SDS011;43967;51.634;5.566;2023-05-31T18:19:44;12.57;;;3.42;;
58152;SDS011;43967;51.634;5.566;2023-05-31T18:25:06;12.57;;;3.77;;
58152;SDS011;43967;51.634;5.566;2023-05-31T18:30:27;12.77;;;3.00;;
58152;SDS011;43967;51.634;5.566;2023-05-31T18:35:48;15.48;;;3.17;;
58152;SDS011;43967;51.634;5.566;2023-05-31T18:41:10;13.50;;;3.37;;
58152;SDS011;43967;51.634;5.566;2023-05-31T18:46:31;9.67;;;3.60;;
58152;SDS011;43967;51.634;5.566;2023-05-31T18:51:52;9.98;;;3.47;;
58152;SDS011;43967;51.634;5.566;2023-05-31T18:57:14;12.85;;;3.50;;
58152;SDS011;43967;51.634;5.566;2023-05-31T19:02:35;10.77;;;2.83;;
58152;SDS011;43967;51.634;5.566;2023-05-31T19:07:56;11.48;;;3.67;;
58152;SDS011;43967;51.634;5.566;2023-05-31T19:13:17;12.07;;;3.40;;
58152;SDS011;43967;51.634;5.566;2023-05-31T19:18:39;11.83;;;3.60;;
58152;SDS011;43967;51.634;5.566;2023-05-31T19:24:01;15.13;;;3.22;;
58152;SDS011;43967;51.634;5.566;2023-05-31T19:29:22;13.05;;;3.80;;
58152;SDS011;43967;51.634;5.566;2023-05-31T19:34:43;10.17;;;3.80;;
58152;SDS011;43967;51.634;5.566;2023-05-31T19:40:05;14.70;;;3.70;;
58152;SDS011;43967;51.634;5.566;2023-05-31T19:45:27;11.52;;;3.60;;
58152;SDS011;43967;51.634;5.566;2023-05-31T19:50:48;13.18;;;3.88;;
58152;SDS011;43967;51.634;5.566;2023-05-31T19:56:09;9.90;;;3.40;;
58152;SDS011;43967;51.634;5.566;2023-05-31T20:01:30;11.65;;;3.45;;
58152;SDS011;43967;51.634;5.566;2023-05-31T20:06:52;11.30;;;3.63;;
58152;SDS011;43967;51.634;5.566;2023-05-31T20:12:13;9.43;;;3.20;;
58152;SDS011;43967;51.634;5.566;2023-05-31T20:17:34;10.68;;;3.42;;
58152;SDS011;43967;51.634;5.566;2023-05-31T20:22:55;7.57;;;2.40;;
58152;SDS011;43967;51.634;5.566;2023-05-31T20:28:17;9.77;;;3.10;;
58152;SDS011;43967;51.634;5.566;2023-05-31T20:33:38;9.20;;;2.90;;
58152;SDS011;43967;51.634;5.566;2023-05-31T20:38:59;8.73;;;3.28;;
58152;SDS011;43967;51.634;5.566;2023-05-31T20:44:20;10.02;;;2.78;;
58152;SDS011;43967;51.634;5.566;2023-05-31T20:49:42;9.40;;;2.77;;
58152;SDS011;43967;51.634;5.566;2023-05-31T20:55:04;8.05;;;2.85;;
58152;SDS011;43967;51.634;5.566;2023-05-31T21:00:25;7.95;;;2.95;;
58152;SDS011;43967;51.634;5.566;2023-05-31T21:05:47;10.27;;;2.80;;
58152;SDS011;43967;51.634;5.566;2023-05-31T21:11:08;9.02;;;2.85;;
58152;SDS011;43967;51.634;5.566;2023-05-31T21:16:29;8.95;;;3.20;;
58152;SDS011;43967;51.634;5.566;2023-05-31T21:21:50;8.27;;;2.90;;
58152;SDS011;43967;51.634;5.566;2023-05-31T21:27:12;8.63;;;3.07;;
58152;SDS011;43967;51.634;5.566;2023-05-31T21:32:33;8.25;;;2.60;;
58152;SDS011;43967;51.634;5.566;2023-05-31T21:37:54;7.25;;;2.85;;
58152;SDS011;43967;51.634;5.566;2023-05-31T21:43:16;8.67;;;2.80;;
58152;SDS011;43967;51.634;5.566;2023-05-31T21:48:37;8.65;;;2.95;;
58152;SDS011;43967;51.634;5.566;2023-05-31T21:53:58;7.28;;;3.03;;
58152;SDS011;43967;51.634;5.566;2023-05-31T21:59:20;7.60;;;2.87;;
58152;SDS011;43967;51.634;5.566;2023-05-31T22:04:41;7.50;;;2.83;;
58152;SDS011;43967;51.634;5.566;2023-05-31T22:10:03;8.80;;;3.03;;
58152;SDS011;43967;51.634;5.566;2023-05-31T22:15:25;8.37;;;2.90;;
58152;SDS011;43967;51.634;5.566;2023-05-31T22:20:47;6.73;;;2.60;;
58152;SDS011;43967;51.634;5.566;2023-05-31T22:26:09;9.65;;;3.15;;
58152;SDS011;43967;51.634;5.566;2023-05-31T22:31:30;8.90;;;2.97;;
58152;SDS011;43967;51.634;5.566;2023-05-31T22:36:52;7.33;;;2.93;;
58152;SDS011;43967;51.634;5.566;2023-05-31T22:42:13;7.63;;;2.83;;
58152;SDS011;43967;51.634;5.566;2023-05-31T22:47:34;7.78;;;2.72;;
58152;SDS011;43967;51.634;5.566;2023-05-31T22:52:55;8.03;;;3.33;;
58152;SDS011;43967;51.634;5.566;2023-05-31T22:58:17;7.60;;;2.88;;
58152;SDS011;43967;51.634;5.566;2023-05-31T23:03:38;8.10;;;2.95;;
58152;SDS011;43967;51.634;5.566;2023-05-31T23:08:59;7.73;;;2.90;;
58152;SDS011;43967;51.634;5.566;2023-05-31T23:14:20;8.53;;;2.97;;
58152;SDS011;43967;51.634;5.566;2023-05-31T23:19:42;7.03;;;2.95;;
58152;SDS011;43967;51.634;5.566;2023-05-31T23:25:03;7.93;;;2.92;;
58152;SDS011;43967;51.634;5.566;2023-05-31T23:30:25;8.43;;;3.00;;
58152;SDS011;43967;51.634;5.566;2023-05-31T23:35:46;6.55;;;2.83;;
58152;SDS011;43967;51.634;5.566;2023-05-31T23:41:07;7.85;;;3.03;;
58152;SDS011;43967;51.634;5.566;2023-05-31T23:46:29;7.90;;;2.80;;
58152;SDS011;43967;51.634;5.566;2023-05-31T23:51:50;6.93;;;2.65;;
58152;SDS011;43967;51.634;5.566;2023-05-31T23:57:11;7.55;;;3.10;;
